Skip Navigation Links
NOAA logo - Click to go to the NOAA homepage
NOAA's National Weather Service
Alaska Aviation Weather Unit
  NWS logo - Click to go to the NWS homepage
Left Navbar Graphic     21 AKDT = 05 GMT

   
NOAA is celebrating 200 years of science, service, and stewardship. Visit the NOAA 200th celebration Web site to learn more.
USA.gov is the U.S. Government's official Web portal to all Federal, state and local government Web resources and services.
Facebook
NWS on Facebook

Important Change Regarding the AAWU Web Presence

 

Over the last several months, the AAWU has been working to navigate its webpages to a nationally supported server. Security, as well as other needs, have necessitated the change.  In the process, we have made an effort to enhance the functionality of our website, as well as some of our products. As of June 27, 2017, aawu.arh.noaa.gov will be discontinued. The new AAWU web address is weather.gov/aawu. It is now live and will run in-parallel with the old site until it is discontinued. Please send any feedback or questions regarding the new webpages to nws.ar.aawu.webauthors@noaa.gov.  Thank you for your patience during this time of transition.
AAWU Home :: Display TAF Add Bookmark
METAR PADE 242353Z AUTO 19012KT 10SM OVC048 15/03 A3007 RMK AO2 SLP183
     60000 T01500028 10150 20094 58004 TSNO $=

METAR PADE 250053Z AUTO 21009KT 10SM BKN050 16/03 A3006 RMK AO2
 SLP180 T01560028 TSNO $=

METAR PADE 250153Z AUTO 22012KT 10SM SCT050 17/03 A3005 RMK AO2 SLP177
     T01720033 TSNO $=

METAR PADE 250253Z AUTO 20011KT 10SM BKN050 16/04 A3005 RMK AO2 SLP174
     T01610039 56009 TSNO $=

METAR PADE 250353Z AUTO 20015KT 10SM OVC050 16/03 A3004 RMK AO2 SLP171
     T01560033 TSNO $=

METAR PADE 250453Z AUTO 18008KT 10SM OVC050 15/04 A3003 RMK AO2 SLP170
     T01500044 TSNO $=


NOAA's National Weather Service
Alaska Aviation Weather Unit
6930 Sand Lake Road
Anchorage, AK 99502-1845
Disclaimer
Credits
Glossary
Privacy Policy
About Us
Career Opportunities
Contact AAWU Internet Services Site last modified: April, 17th 2012